Inverrary, Florida
Current Conditions -  °F | °C
As of 5:53 AM on Friday 31 Oct 2014 (Local Time) from KFXE Reporting Station
Clear Clear  
Wind Chill: 69°   Ceiling: Unl
Heat Index: 69°   Visibility: 10mi
Dew Point: 66°   Wind: 6mph
Humidity: 90%   Direction: 260°W
Pressure: 29.83"   Gusts: NA
Location:  26.1819°N, 80.2274°W
Report Text: KFXE 310953Z 26005KT 10SM CLR 21/19 A2983 RMK AO2 SLP102 T02060189
Loading
Personal Weather Stations






























Interactive Weather Map
Tropical Storm Tracking
New forecast layout! Learn more

10-Day Weather Forecast

Advertisements
Track Severe Weather on mobile